sensor_id;sensor_type;location;lat;lon;timestamp;P1;durP1;ratioP1;P2;durP2;ratioP2
42514;SDS011;28144;49.920;18.730;2023-02-08T00:00:20;165.40;;;63.53;;
42514;SDS011;28144;49.920;18.730;2023-02-08T00:03:07;145.97;;;58.83;;
42514;SDS011;28144;49.920;18.730;2023-02-08T00:05:33;147.23;;;61.00;;
42514;SDS011;28144;49.920;18.730;2023-02-08T00:07:58;141.00;;;56.13;;
42514;SDS011;28144;49.920;18.730;2023-02-08T00:10:24;142.50;;;58.67;;
42514;SDS011;28144;49.920;18.730;2023-02-08T00:12:50;140.17;;;60.70;;
42514;SDS011;28144;49.920;18.730;2023-02-08T00:15:19;151.70;;;59.20;;
42514;SDS011;28144;49.920;18.730;2023-02-08T00:17:45;148.25;;;62.67;;
42514;SDS011;28144;49.920;18.730;2023-02-08T00:20:11;237.50;;;89.37;;
42514;SDS011;28144;49.920;18.730;2023-02-08T00:22:37;147.55;;;61.80;;
42514;SDS011;28144;49.920;18.730;2023-02-08T00:25:03;196.73;;;74.10;;
42514;SDS011;28144;49.920;18.730;2023-02-08T00:27:30;166.37;;;65.23;;
42514;SDS011;28144;49.920;18.730;2023-02-08T00:29:55;161.30;;;63.20;;
42514;SDS011;28144;49.920;18.730;2023-02-08T00:32:21;153.13;;;62.20;;
42514;SDS011;28144;49.920;18.730;2023-02-08T00:34:47;147.77;;;60.17;;
42514;SDS011;28144;49.920;18.730;2023-02-08T00:37:13;126.87;;;48.73;;
42514;SDS011;28144;49.920;18.730;2023-02-08T00:39:38;142.87;;;62.13;;
42514;SDS011;28144;49.920;18.730;2023-02-08T00:42:04;152.10;;;67.10;;
42514;SDS011;28144;49.920;18.730;2023-02-08T00:44:30;159.67;;;64.63;;
42514;SDS011;28144;49.920;18.730;2023-02-08T00:46:55;153.23;;;64.90;;
42514;SDS011;28144;49.920;18.730;2023-02-08T00:49:21;164.90;;;68.57;;
42514;SDS011;28144;49.920;18.730;2023-02-08T00:51:47;151.97;;;68.10;;
42514;SDS011;28144;49.920;18.730;2023-02-08T00:54:16;166.20;;;67.40;;
42514;SDS011;28144;49.920;18.730;2023-02-08T00:56:43;154.43;;;61.37;;
42514;SDS011;28144;49.920;18.730;2023-02-08T00:59:08;154.13;;;63.37;;
42514;SDS011;28144;49.920;18.730;2023-02-08T01:01:35;154.40;;;59.75;;
42514;SDS011;28144;49.920;18.730;2023-02-08T01:04:01;148.53;;;62.97;;
42514;SDS011;28144;49.920;18.730;2023-02-08T01:06:27;154.07;;;60.73;;
42514;SDS011;28144;49.920;18.730;2023-02-08T01:08:52;149.80;;;60.77;;
42514;SDS011;28144;49.920;18.730;2023-02-08T01:11:19;139.30;;;58.27;;
42514;SDS011;28144;49.920;18.730;2023-02-08T01:13:47;143.10;;;59.27;;
42514;SDS011;28144;49.920;18.730;2023-02-08T01:16:21;147.85;;;61.40;;
42514;SDS011;28144;49.920;18.730;2023-02-08T01:18:48;151.30;;;60.00;;
42514;SDS011;28144;49.920;18.730;2023-02-08T01:21:16;142.00;;;58.60;;
42514;SDS011;28144;49.920;18.730;2023-02-08T01:23:44;149.77;;;60.83;;
42514;SDS011;28144;49.920;18.730;2023-02-08T01:26:11;151.10;;;63.28;;
42514;SDS011;28144;49.920;18.730;2023-02-08T01:28:37;155.20;;;58.35;;
42514;SDS011;28144;49.920;18.730;2023-02-08T01:31:04;163.95;;;68.47;;
42514;SDS011;28144;49.920;18.730;2023-02-08T01:33:31;136.93;;;58.90;;
42514;SDS011;28144;49.920;18.730;2023-02-08T01:35:57;137.37;;;58.50;;
42514;SDS011;28144;49.920;18.730;2023-02-08T01:38:22;140.87;;;58.43;;
42514;SDS011;28144;49.920;18.730;2023-02-08T01:40:49;132.37;;;56.67;;
42514;SDS011;28144;49.920;18.730;2023-02-08T01:43:22;137.05;;;57.25;;
42514;SDS011;28144;49.920;18.730;2023-02-08T01:45:50;135.57;;;57.63;;
42514;SDS011;28144;49.920;18.730;2023-02-08T01:50:54;152.80;;;61.03;;
42514;SDS011;28144;49.920;18.730;2023-02-08T01:53:23;147.80;;;61.90;;
42514;SDS011;28144;49.920;18.730;2023-02-08T01:55:51;152.73;;;60.37;;
42514;SDS011;28144;49.920;18.730;2023-02-08T01:58:19;132.03;;;60.07;;
42514;SDS011;28144;49.920;18.730;2023-02-08T02:00:46;142.07;;;61.92;;
42514;SDS011;28144;49.920;18.730;2023-02-08T02:03:12;141.50;;;59.92;;
42514;SDS011;28144;49.920;18.730;2023-02-08T02:05:40;146.90;;;62.20;;
42514;SDS011;28144;49.920;18.730;2023-02-08T02:08:07;147.13;;;62.80;;
42514;SDS011;28144;49.920;18.730;2023-02-08T02:13:11;132.98;;;53.38;;
42514;SDS011;28144;49.920;18.730;2023-02-08T02:15:40;129.83;;;56.47;;
42514;SDS011;28144;49.920;18.730;2023-02-08T02:18:07;147.38;;;58.58;;
42514;SDS011;28144;49.920;18.730;2023-02-08T02:31:27;132.10;;;52.60;;
42514;SDS011;28144;49.920;18.730;2023-02-08T02:39:36;372.43;;;108.17;;
42514;SDS011;28144;49.920;18.730;2023-02-08T02:47:41;549.57;;;147.87;;
42514;SDS011;28144;49.920;18.730;2023-02-08T02:53:44;434.43;;;119.10;;
42514;SDS011;28144;49.920;18.730;2023-02-08T02:56:13;383.93;;;116.10;;
42514;SDS011;28144;49.920;18.730;2023-02-08T02:58:42;438.07;;;158.43;;
42514;SDS011;28144;49.920;18.730;2023-02-08T03:03:34;153.80;;;63.13;;
42514;SDS011;28144;49.920;18.730;2023-02-08T03:06:04;162.53;;;62.50;;
42514;SDS011;28144;49.920;18.730;2023-02-08T03:08:40;148.43;;;63.70;;
42514;SDS011;28144;49.920;18.730;2023-02-08T03:11:21;155.83;;;67.43;;
42514;SDS011;28144;49.920;18.730;2023-02-08T03:16:56;160.70;;;63.93;;
42514;SDS011;28144;49.920;18.730;2023-02-08T03:19:35;161.63;;;67.83;;
42514;SDS011;28144;49.920;18.730;2023-02-08T03:22:04;160.67;;;70.47;;
42514;SDS011;28144;49.920;18.730;2023-02-08T03:27:49;310.73;;;115.23;;
42514;SDS011;28144;49.920;18.730;2023-02-08T03:30:23;171.23;;;69.05;;
42514;SDS011;28144;49.920;18.730;2023-02-08T03:32:56;163.67;;;69.43;;
42514;SDS011;28144;49.920;18.730;2023-02-08T03:35:37;158.63;;;67.63;;
42514;SDS011;28144;49.920;18.730;2023-02-08T03:40:39;161.30;;;69.70;;
42514;SDS011;28144;49.920;18.730;2023-02-08T03:43:09;155.03;;;68.87;;
42514;SDS011;28144;49.920;18.730;2023-02-08T03:45:38;155.57;;;69.87;;
42514;SDS011;28144;49.920;18.730;2023-02-08T03:48:07;173.70;;;72.90;;
42514;SDS011;28144;49.920;18.730;2023-02-08T03:50:35;155.53;;;66.87;;
42514;SDS011;28144;49.920;18.730;2023-02-08T03:53:02;144.37;;;60.20;;
42514;SDS011;28144;49.920;18.730;2023-02-08T03:55:30;153.35;;;60.55;;
42514;SDS011;28144;49.920;18.730;2023-02-08T03:57:59;214.47;;;81.80;;
42514;SDS011;28144;49.920;18.730;2023-02-08T04:00:30;139.47;;;60.60;;
42514;SDS011;28144;49.920;18.730;2023-02-08T04:03:07;141.73;;;59.37;;
42514;SDS011;28144;49.920;18.730;2023-02-08T04:05:36;145.90;;;59.87;;
42514;SDS011;28144;49.920;18.730;2023-02-08T04:08:02;129.37;;;58.13;;
42514;SDS011;28144;49.920;18.730;2023-02-08T04:10:28;140.43;;;58.97;;
42514;SDS011;28144;49.920;18.730;2023-02-08T04:12:54;143.90;;;60.83;;
42514;SDS011;28144;49.920;18.730;2023-02-08T04:15:19;139.60;;;59.50;;
42514;SDS011;28144;49.920;18.730;2023-02-08T04:17:46;138.18;;;61.15;;
42514;SDS011;28144;49.920;18.730;2023-02-08T04:20:12;142.87;;;59.00;;
42514;SDS011;28144;49.920;18.730;2023-02-08T04:22:37;155.33;;;66.07;;
42514;SDS011;28144;49.920;18.730;2023-02-08T04:25:04;140.15;;;63.17;;
42514;SDS011;28144;49.920;18.730;2023-02-08T04:27:30;148.27;;;61.65;;
42514;SDS011;28144;49.920;18.730;2023-02-08T04:29:56;153.70;;;61.93;;
42514;SDS011;28144;49.920;18.730;2023-02-08T04:32:21;133.70;;;58.50;;
42514;SDS011;28144;49.920;18.730;2023-02-08T04:34:47;138.93;;;62.33;;
42514;SDS011;28144;49.920;18.730;2023-02-08T04:37:13;130.07;;;57.27;;
42514;SDS011;28144;49.920;18.730;2023-02-08T04:39:39;139.27;;;58.77;;
42514;SDS011;28144;49.920;18.730;2023-02-08T04:42:04;146.90;;;58.23;;
42514;SDS011;28144;49.920;18.730;2023-02-08T04:44:30;143.47;;;63.40;;
42514;SDS011;28144;49.920;18.730;2023-02-08T04:46:57;147.93;;;61.65;;
42514;SDS011;28144;49.920;18.730;2023-02-08T04:49:23;134.75;;;57.75;;
42514;SDS011;28144;49.920;18.730;2023-02-08T04:51:49;129.40;;;54.33;;
42514;SDS011;28144;49.920;18.730;2023-02-08T04:54:15;145.97;;;62.87;;
42514;SDS011;28144;49.920;18.730;2023-02-08T04:56:40;147.00;;;57.97;;
42514;SDS011;28144;49.920;18.730;2023-02-08T04:59:06;142.77;;;57.83;;
42514;SDS011;28144;49.920;18.730;2023-02-08T05:01:32;149.90;;;62.07;;
42514;SDS011;28144;49.920;18.730;2023-02-08T05:03:58;114.60;;;45.20;;
42514;SDS011;28144;49.920;18.730;2023-02-08T05:06:23;142.53;;;60.63;;
42514;SDS011;28144;49.920;18.730;2023-02-08T05:08:49;154.57;;;64.03;;
42514;SDS011;28144;49.920;18.730;2023-02-08T05:11:19;147.47;;;60.83;;
42514;SDS011;28144;49.920;18.730;2023-02-08T05:13:45;140.80;;;56.40;;
42514;SDS011;28144;49.920;18.730;2023-02-08T05:16:11;148.73;;;61.20;;
42514;SDS011;28144;49.920;18.730;2023-02-08T05:18:37;161.50;;;61.27;;
42514;SDS011;28144;49.920;18.730;2023-02-08T05:21:02;141.77;;;55.07;;
42514;SDS011;28144;49.920;18.730;2023-02-08T05:23:28;137.50;;;56.07;;
42514;SDS011;28144;49.920;18.730;2023-02-08T05:25:54;141.23;;;60.07;;
42514;SDS011;28144;49.920;18.730;2023-02-08T05:28:20;141.57;;;57.87;;
42514;SDS011;28144;49.920;18.730;2023-02-08T05:30:46;133.50;;;52.77;;
42514;SDS011;28144;49.920;18.730;2023-02-08T05:33:12;150.63;;;60.17;;
42514;SDS011;28144;49.920;18.730;2023-02-08T05:35:38;138.77;;;56.33;;
42514;SDS011;28144;49.920;18.730;2023-02-08T05:38:04;147.60;;;60.67;;
42514;SDS011;28144;49.920;18.730;2023-02-08T05:40:30;143.90;;;54.73;;
42514;SDS011;28144;49.920;18.730;2023-02-08T05:42:56;140.98;;;60.08;;
42514;SDS011;28144;49.920;18.730;2023-02-08T05:45:22;150.30;;;55.97;;
42514;SDS011;28144;49.920;18.730;2023-02-08T05:47:47;153.77;;;60.50;;
42514;SDS011;28144;49.920;18.730;2023-02-08T05:50:13;152.17;;;64.70;;
42514;SDS011;28144;49.920;18.730;2023-02-08T05:52:39;131.27;;;53.22;;
42514;SDS011;28144;49.920;18.730;2023-02-08T05:55:05;153.20;;;59.27;;
42514;SDS011;28144;49.920;18.730;2023-02-08T05:57:32;143.70;;;58.80;;
42514;SDS011;28144;49.920;18.730;2023-02-08T05:59:57;138.57;;;58.93;;
42514;SDS011;28144;49.920;18.730;2023-02-08T06:02:23;132.23;;;53.53;;
42514;SDS011;28144;49.920;18.730;2023-02-08T06:04:49;133.17;;;56.93;;
42514;SDS011;28144;49.920;18.730;2023-02-08T06:07:15;141.10;;;58.17;;
42514;SDS011;28144;49.920;18.730;2023-02-08T06:09:41;117.80;;;48.37;;
42514;SDS011;28144;49.920;18.730;2023-02-08T06:12:07;139.40;;;57.97;;
42514;SDS011;28144;49.920;18.730;2023-02-08T06:14:33;127.67;;;55.73;;
42514;SDS011;28144;49.920;18.730;2023-02-08T06:16:59;120.63;;;48.92;;
42514;SDS011;28144;49.920;18.730;2023-02-08T06:19:25;113.33;;;49.67;;
42514;SDS011;28144;49.920;18.730;2023-02-08T06:21:50;125.33;;;47.83;;
42514;SDS011;28144;49.920;18.730;2023-02-08T06:24:16;126.93;;;51.87;;
42514;SDS011;28144;49.920;18.730;2023-02-08T06:26:42;116.83;;;51.80;;
42514;SDS011;28144;49.920;18.730;2023-02-08T06:29:08;114.43;;;42.47;;
42514;SDS011;28144;49.920;18.730;2023-02-08T06:31:34;118.37;;;47.00;;
42514;SDS011;28144;49.920;18.730;2023-02-08T06:34:00;121.70;;;43.10;;
42514;SDS011;28144;49.920;18.730;2023-02-08T06:36:26;127.03;;;50.77;;
42514;SDS011;28144;49.920;18.730;2023-02-08T06:38:52;117.43;;;51.83;;
42514;SDS011;28144;49.920;18.730;2023-02-08T06:41:18;95.87;;;39.47;;
42514;SDS011;28144;49.920;18.730;2023-02-08T06:43:43;118.40;;;47.03;;
42514;SDS011;28144;49.920;18.730;2023-02-08T06:46:09;118.90;;;46.53;;
42514;SDS011;28144;49.920;18.730;2023-02-08T06:48:35;125.43;;;51.47;;
42514;SDS011;28144;49.920;18.730;2023-02-08T06:51:01;127.07;;;49.53;;
42514;SDS011;28144;49.920;18.730;2023-02-08T06:53:26;111.47;;;42.03;;
42514;SDS011;28144;49.920;18.730;2023-02-08T06:55:52;108.77;;;34.90;;
42514;SDS011;28144;49.920;18.730;2023-02-08T06:58:18;96.00;;;36.13;;
42514;SDS011;28144;49.920;18.730;2023-02-08T07:00:44;133.87;;;52.30;;
42514;SDS011;28144;49.920;18.730;2023-02-08T07:03:10;130.07;;;46.93;;
42514;SDS011;28144;49.920;18.730;2023-02-08T07:05:37;116.80;;;45.47;;
42514;SDS011;28144;49.920;18.730;2023-02-08T07:08:03;68.40;;;23.47;;
42514;SDS011;28144;49.920;18.730;2023-02-08T07:10:29;108.78;;;36.88;;
42514;SDS011;28144;49.920;18.730;2023-02-08T07:12:55;97.33;;;33.63;;
42514;SDS011;28144;49.920;18.730;2023-02-08T07:15:21;50.90;;;19.50;;
42514;SDS011;28144;49.920;18.730;2023-02-08T07:17:46;97.33;;;37.23;;
42514;SDS011;28144;49.920;18.730;2023-02-08T07:20:13;90.65;;;29.67;;
42514;SDS011;28144;49.920;18.730;2023-02-08T07:22:39;78.77;;;25.80;;
42514;SDS011;28144;49.920;18.730;2023-02-08T07:25:05;93.53;;;33.67;;
42514;SDS011;28144;49.920;18.730;2023-02-08T07:27:32;80.22;;;32.75;;
42514;SDS011;28144;49.920;18.730;2023-02-08T07:29:58;95.33;;;37.07;;
42514;SDS011;28144;49.920;18.730;2023-02-08T07:32:23;71.33;;;24.53;;
42514;SDS011;28144;49.920;18.730;2023-02-08T07:34:49;80.93;;;33.10;;
42514;SDS011;28144;49.920;18.730;2023-02-08T07:37:15;59.37;;;25.10;;
42514;SDS011;28144;49.920;18.730;2023-02-08T07:39:41;93.70;;;36.08;;
42514;SDS011;28144;49.920;18.730;2023-02-08T07:42:07;53.37;;;20.07;;
42514;SDS011;28144;49.920;18.730;2023-02-08T07:44:35;83.50;;;34.60;;
42514;SDS011;28144;49.920;18.730;2023-02-08T07:47:02;43.23;;;19.00;;
42514;SDS011;28144;49.920;18.730;2023-02-08T07:49:29;81.20;;;32.80;;
42514;SDS011;28144;49.920;18.730;2023-02-08T07:51:55;48.63;;;18.42;;
42514;SDS011;28144;49.920;18.730;2023-02-08T07:54:20;65.00;;;24.53;;
42514;SDS011;28144;49.920;18.730;2023-02-08T07:56:46;61.53;;;23.83;;
42514;SDS011;28144;49.920;18.730;2023-02-08T07:59:12;59.97;;;19.63;;
42514;SDS011;28144;49.920;18.730;2023-02-08T08:01:38;40.22;;;17.10;;
42514;SDS011;28144;49.920;18.730;2023-02-08T08:04:04;67.33;;;25.70;;
42514;SDS011;28144;49.920;18.730;2023-02-08T08:06:30;56.20;;;20.83;;
42514;SDS011;28144;49.920;18.730;2023-02-08T08:08:56;53.70;;;19.10;;
42514;SDS011;28144;49.920;18.730;2023-02-08T08:11:22;53.23;;;20.77;;
42514;SDS011;28144;49.920;18.730;2023-02-08T08:13:48;73.90;;;29.47;;
42514;SDS011;28144;49.920;18.730;2023-02-08T08:16:14;66.03;;;27.37;;
42514;SDS011;28144;49.920;18.730;2023-02-08T08:18:40;46.28;;;19.40;;
42514;SDS011;28144;49.920;18.730;2023-02-08T08:21:06;54.20;;;21.77;;
42514;SDS011;28144;49.920;18.730;2023-02-08T08:23:32;47.22;;;19.42;;
42514;SDS011;28144;49.920;18.730;2023-02-08T08:25:58;35.37;;;14.17;;
42514;SDS011;28144;49.920;18.730;2023-02-08T08:28:24;47.50;;;18.30;;
42514;SDS011;28144;49.920;18.730;2023-02-08T08:30:50;68.27;;;25.83;;
42514;SDS011;28144;49.920;18.730;2023-02-08T08:33:18;81.20;;;32.63;;
42514;SDS011;28144;49.920;18.730;2023-02-08T08:35:43;60.73;;;25.00;;
42514;SDS011;28144;49.920;18.730;2023-02-08T08:38:12;72.50;;;25.03;;
42514;SDS011;28144;49.920;18.730;2023-02-08T08:40:38;70.07;;;27.52;;
42514;SDS011;28144;49.920;18.730;2023-02-08T08:43:04;65.17;;;25.67;;
42514;SDS011;28144;49.920;18.730;2023-02-08T08:45:29;49.90;;;18.90;;
42514;SDS011;28144;49.920;18.730;2023-02-08T08:47:55;64.30;;;22.13;;
42514;SDS011;28144;49.920;18.730;2023-02-08T08:50:20;78.80;;;30.67;;
42514;SDS011;28144;49.920;18.730;2023-02-08T08:52:46;75.10;;;31.63;;
42514;SDS011;28144;49.920;18.730;2023-02-08T08:55:12;72.00;;;25.90;;
42514;SDS011;28144;49.920;18.730;2023-02-08T08:57:38;44.65;;;16.05;;
42514;SDS011;28144;49.920;18.730;2023-02-08T09:00:04;34.63;;;13.77;;
42514;SDS011;28144;49.920;18.730;2023-02-08T09:02:30;68.97;;;26.25;;
42514;SDS011;28144;49.920;18.730;2023-02-08T09:04:55;73.17;;;29.60;;
42514;SDS011;28144;49.920;18.730;2023-02-08T09:07:24;57.20;;;19.50;;
42514;SDS011;28144;49.920;18.730;2023-02-08T09:09:50;88.17;;;32.43;;
42514;SDS011;28144;49.920;18.730;2023-02-08T09:12:16;78.37;;;30.87;;
42514;SDS011;28144;49.920;18.730;2023-02-08T09:14:41;61.03;;;23.23;;
42514;SDS011;28144;49.920;18.730;2023-02-08T09:17:09;32.17;;;14.83;;
42514;SDS011;28144;49.920;18.730;2023-02-08T09:19:36;59.15;;;18.45;;
42514;SDS011;28144;49.920;18.730;2023-02-08T09:22:02;80.43;;;30.05;;
42514;SDS011;28144;49.920;18.730;2023-02-08T09:24:27;73.33;;;26.40;;
42514;SDS011;28144;49.920;18.730;2023-02-08T09:26:53;52.90;;;21.60;;
42514;SDS011;28144;49.920;18.730;2023-02-08T09:29:18;52.87;;;17.67;;
42514;SDS011;28144;49.920;18.730;2023-02-08T09:31:44;41.63;;;16.20;;
42514;SDS011;28144;49.920;18.730;2023-02-08T09:34:10;66.73;;;26.33;;
42514;SDS011;28144;49.920;18.730;2023-02-08T09:36:37;84.07;;;34.30;;
42514;SDS011;28144;49.920;18.730;2023-02-08T09:39:07;46.00;;;17.43;;
42514;SDS011;28144;49.920;18.730;2023-02-08T09:42:24;43.60;;;16.07;;
42514;SDS011;28144;49.920;18.730;2023-02-08T09:47:08;61.77;;;22.70;;
42514;SDS011;28144;49.920;18.730;2023-02-08T09:52:51;43.33;;;14.63;;
42514;SDS011;28144;49.920;18.730;2023-02-08T09:55:57;57.43;;;23.17;;
42514;SDS011;28144;49.920;18.730;2023-02-08T09:58:35;54.90;;;22.37;;
42514;SDS011;28144;49.920;18.730;2023-02-08T10:01:02;60.47;;;22.67;;
42514;SDS011;28144;49.920;18.730;2023-02-08T10:03:36;62.43;;;23.23;;
42514;SDS011;28144;49.920;18.730;2023-02-08T10:06:09;32.97;;;12.03;;
42514;SDS011;28144;49.920;18.730;2023-02-08T10:08:37;59.80;;;23.50;;
42514;SDS011;28144;49.920;18.730;2023-02-08T10:22:37;78.33;;;26.97;;
42514;SDS011;28144;49.920;18.730;2023-02-08T10:25:13;58.30;;;21.73;;
42514;SDS011;28144;49.920;18.730;2023-02-08T10:27:58;40.90;;;17.73;;
42514;SDS011;28144;49.920;18.730;2023-02-08T10:30:38;43.60;;;18.73;;
42514;SDS011;28144;49.920;18.730;2023-02-08T10:36:06;46.83;;;16.93;;
42514;SDS011;28144;49.920;18.730;2023-02-08T10:38:37;47.77;;;20.00;;
42514;SDS011;28144;49.920;18.730;2023-02-08T10:41:04;64.43;;;23.65;;
42514;SDS011;28144;49.920;18.730;2023-02-08T10:48:43;95.93;;;36.73;;
42514;SDS011;28144;49.920;18.730;2023-02-08T10:51:29;71.70;;;26.80;;
42514;SDS011;28144;49.920;18.730;2023-02-08T10:53:56;79.03;;;30.20;;
42514;SDS011;28144;49.920;18.730;2023-02-08T10:59:20;79.10;;;27.92;;
42514;SDS011;28144;49.920;18.730;2023-02-08T11:01:48;80.60;;;30.03;;
42514;SDS011;28144;49.920;18.730;2023-02-08T11:06:42;51.35;;;20.77;;
42514;SDS011;28144;49.920;18.730;2023-02-08T11:09:23;66.07;;;28.17;;
42514;SDS011;28144;49.920;18.730;2023-02-08T11:11:51;26.67;;;11.43;;
42514;SDS011;28144;49.920;18.730;2023-02-08T11:14:18;43.75;;;17.02;;
42514;SDS011;28144;49.920;18.730;2023-02-08T11:16:48;26.77;;;11.53;;
42514;SDS011;28144;49.920;18.730;2023-02-08T11:19:19;35.23;;;15.47;;
42514;SDS011;28144;49.920;18.730;2023-02-08T11:21:59;43.47;;;16.83;;
42514;SDS011;28144;49.920;18.730;2023-02-08T11:26:53;57.03;;;20.77;;
42514;SDS011;28144;49.920;18.730;2023-02-08T11:29:27;21.60;;;8.65;;
42514;SDS011;28144;49.920;18.730;2023-02-08T11:34:29;42.57;;;18.33;;
42514;SDS011;28144;49.920;18.730;2023-02-08T11:36:58;34.60;;;14.30;;
42514;SDS011;28144;49.920;18.730;2023-02-08T11:41:59;39.53;;;15.10;;
42514;SDS011;28144;49.920;18.730;2023-02-08T11:44:27;43.83;;;17.02;;
42514;SDS011;28144;49.920;18.730;2023-02-08T11:46:56;52.20;;;19.10;;
42514;SDS011;28144;49.920;18.730;2023-02-08T11:49:25;57.60;;;24.27;;
42514;SDS011;28144;49.920;18.730;2023-02-08T11:51:54;56.10;;;24.30;;
42514;SDS011;28144;49.920;18.730;2023-02-08T11:57:18;57.70;;;23.10;;
42514;SDS011;28144;49.920;18.730;2023-02-08T11:59:46;58.10;;;23.80;;
42514;SDS011;28144;49.920;18.730;2023-02-08T12:05:04;55.80;;;22.30;;
42514;SDS011;28144;49.920;18.730;2023-02-08T12:08:24;37.83;;;13.13;;
42514;SDS011;28144;49.920;18.730;2023-02-08T12:13:27;55.53;;;23.00;;
42514;SDS011;28144;49.920;18.730;2023-02-08T12:21:42;42.07;;;17.27;;
42514;SDS011;28144;49.920;18.730;2023-02-08T12:24:21;37.87;;;14.33;;
42514;SDS011;28144;49.920;18.730;2023-02-08T12:26:58;45.00;;;18.07;;
42514;SDS011;28144;49.920;18.730;2023-02-08T12:30:14;57.53;;;23.23;;
42514;SDS011;28144;49.920;18.730;2023-02-08T12:44:39;37.20;;;15.93;;
42514;SDS011;28144;49.920;18.730;2023-02-08T12:50:16;29.40;;;11.27;;
42514;SDS011;28144;49.920;18.730;2023-02-08T12:52:53;35.37;;;16.43;;
42514;SDS011;28144;49.920;18.730;2023-02-08T12:55:23;45.13;;;19.03;;
42514;SDS011;28144;49.920;18.730;2023-02-08T12:57:56;42.23;;;18.10;;
42514;SDS011;28144;49.920;18.730;2023-02-08T13:05:55;38.70;;;13.67;;
42514;SDS011;28144;49.920;18.730;2023-02-08T13:11:20;46.72;;;19.58;;
42514;SDS011;28144;49.920;18.730;2023-02-08T13:13:55;48.53;;;20.47;;
42514;SDS011;28144;49.920;18.730;2023-02-08T13:16:44;28.27;;;11.03;;
42514;SDS011;28144;49.920;18.730;2023-02-08T13:19:17;48.33;;;19.73;;
42514;SDS011;28144;49.920;18.730;2023-02-08T13:21:48;35.05;;;8.63;;
42514;SDS011;28144;49.920;18.730;2023-02-08T13:24:34;36.17;;;14.83;;
42514;SDS011;28144;49.920;18.730;2023-02-08T13:27:02;31.73;;;12.88;;
42514;SDS011;28144;49.920;18.730;2023-02-08T13:29:31;50.20;;;17.33;;
42514;SDS011;28144;49.920;18.730;2023-02-08T13:32:06;37.65;;;14.13;;
42514;SDS011;28144;49.920;18.730;2023-02-08T13:39:35;37.00;;;13.97;;
42514;SDS011;28144;49.920;18.730;2023-02-08T13:42:05;36.03;;;13.93;;
42514;SDS011;28144;49.920;18.730;2023-02-08T13:44:37;46.20;;;18.43;;
42514;SDS011;28144;49.920;18.730;2023-02-08T13:47:03;46.27;;;19.90;;
42514;SDS011;28144;49.920;18.730;2023-02-08T13:55:37;40.53;;;14.70;;
42514;SDS011;28144;49.920;18.730;2023-02-08T13:58:00;51.83;;;21.93;;
42514;SDS011;28144;49.920;18.730;2023-02-08T14:00:28;43.57;;;16.27;;
42514;SDS011;28144;49.920;18.730;2023-02-08T14:03:02;18.53;;;7.47;;
42514;SDS011;28144;49.920;18.730;2023-02-08T14:08:05;40.70;;;18.30;;
42514;SDS011;28144;49.920;18.730;2023-02-08T14:10:43;34.20;;;12.60;;
42514;SDS011;28144;49.920;18.730;2023-02-08T14:13:16;46.37;;;19.63;;
42514;SDS011;28144;49.920;18.730;2023-02-08T14:15:46;40.83;;;16.73;;
42514;SDS011;28144;49.920;18.730;2023-02-08T14:18:22;30.10;;;12.33;;
42514;SDS011;28144;49.920;18.730;2023-02-08T14:20:54;17.67;;;6.63;;
42514;SDS011;28144;49.920;18.730;2023-02-08T14:23:26;23.50;;;9.33;;
42514;SDS011;28144;49.920;18.730;2023-02-08T14:25:55;29.23;;;13.23;;
42514;SDS011;28144;49.920;18.730;2023-02-08T14:30:49;42.83;;;15.10;;
42514;SDS011;28144;49.920;18.730;2023-02-08T14:33:17;52.97;;;19.80;;
42514;SDS011;28144;49.920;18.730;2023-02-08T14:35:57;24.97;;;7.90;;
42514;SDS011;28144;49.920;18.730;2023-02-08T14:41:41;52.70;;;22.00;;
42514;SDS011;28144;49.920;18.730;2023-02-08T14:47:03;45.83;;;18.60;;
42514;SDS011;28144;49.920;18.730;2023-02-08T14:49:35;42.17;;;18.43;;
42514;SDS011;28144;49.920;18.730;2023-02-08T14:52:08;44.10;;;17.87;;
42514;SDS011;28144;49.920;18.730;2023-02-08T14:54:38;40.43;;;16.60;;
42514;SDS011;28144;49.920;18.730;2023-02-08T14:57:19;49.53;;;17.83;;
42514;SDS011;28144;49.920;18.730;2023-02-08T14:59:49;49.85;;;21.27;;
42514;SDS011;28144;49.920;18.730;2023-02-08T15:02:19;41.42;;;19.13;;
42514;SDS011;28144;49.920;18.730;2023-02-08T15:04:46;52.07;;;22.60;;
42514;SDS011;28144;49.920;18.730;2023-02-08T15:07:21;54.30;;;20.27;;
42514;SDS011;28144;49.920;18.730;2023-02-08T15:10:03;44.43;;;19.53;;
42514;SDS011;28144;49.920;18.730;2023-02-08T15:12:35;57.07;;;23.10;;
42514;SDS011;28144;49.920;18.730;2023-02-08T15:15:02;49.53;;;19.13;;
42514;SDS011;28144;49.920;18.730;2023-02-08T15:17:45;45.22;;;18.30;;
42514;SDS011;28144;49.920;18.730;2023-02-08T15:20:19;56.43;;;23.03;;
42514;SDS011;28144;49.920;18.730;2023-02-08T15:23:00;62.83;;;23.10;;
42514;SDS011;28144;49.920;18.730;2023-02-08T15:25:27;51.10;;;22.17;;
42514;SDS011;28144;49.920;18.730;2023-02-08T15:27:56;61.57;;;24.87;;
42514;SDS011;28144;49.920;18.730;2023-02-08T15:32:54;63.63;;;26.03;;
42514;SDS011;28144;49.920;18.730;2023-02-08T15:35:20;60.83;;;25.23;;
42514;SDS011;28144;49.920;18.730;2023-02-08T15:37:48;47.63;;;19.57;;
42514;SDS011;28144;49.920;18.730;2023-02-08T15:40:28;65.97;;;26.30;;
42514;SDS011;28144;49.920;18.730;2023-02-08T15:43:09;67.97;;;27.33;;
42514;SDS011;28144;49.920;18.730;2023-02-08T15:45:36;69.93;;;27.40;;
42514;SDS011;28144;49.920;18.730;2023-02-08T15:48:03;64.57;;;24.87;;
42514;SDS011;28144;49.920;18.730;2023-02-08T15:50:29;71.97;;;29.60;;
42514;SDS011;28144;49.920;18.730;2023-02-08T15:52:57;79.30;;;29.85;;
42514;SDS011;28144;49.920;18.730;2023-02-08T15:55:25;84.90;;;33.60;;
42514;SDS011;28144;49.920;18.730;2023-02-08T15:57:54;111.97;;;39.00;;
42514;SDS011;28144;49.920;18.730;2023-02-08T16:00:25;138.20;;;41.43;;
42514;SDS011;28144;49.920;18.730;2023-02-08T16:02:55;143.07;;;42.13;;
42514;SDS011;28144;49.920;18.730;2023-02-08T16:05:27;134.40;;;41.50;;
42514;SDS011;28144;49.920;18.730;2023-02-08T16:07:54;115.63;;;39.90;;
42514;SDS011;28144;49.920;18.730;2023-02-08T16:12:57;97.40;;;34.40;;
42514;SDS011;28144;49.920;18.730;2023-02-08T16:15:44;117.03;;;35.43;;
42514;SDS011;28144;49.920;18.730;2023-02-08T16:21:26;92.57;;;33.07;;
42514;SDS011;28144;49.920;18.730;2023-02-08T16:23:59;100.17;;;34.90;;
42514;SDS011;28144;49.920;18.730;2023-02-08T16:26:30;89.30;;;33.47;;
42514;SDS011;28144;49.920;18.730;2023-02-08T16:29:13;92.07;;;33.70;;
42514;SDS011;28144;49.920;18.730;2023-02-08T16:31:42;81.93;;;34.03;;
42514;SDS011;28144;49.920;18.730;2023-02-08T16:34:20;80.10;;;30.53;;
42514;SDS011;28144;49.920;18.730;2023-02-08T16:36:49;94.80;;;35.73;;
42514;SDS011;28144;49.920;18.730;2023-02-08T16:44:24;111.57;;;41.77;;
42514;SDS011;28144;49.920;18.730;2023-02-08T16:47:00;104.93;;;38.97;;